createdAt,value
2022-07-30T00:00:48.935Z,20.29
2022-07-30T00:03:16.745Z,20.24
2022-07-30T00:05:44.760Z,20.22
2022-07-30T00:08:16.193Z,20.21
2022-07-30T00:10:43.749Z,20.25
2022-07-30T00:13:14.442Z,20.20
2022-07-30T00:15:46.784Z,20.11
2022-07-30T00:18:14.821Z,20.08
2022-07-30T00:20:44.412Z,20.04
2022-07-30T00:23:16.164Z,20.00
2022-07-30T00:25:44.682Z,20.00
2022-07-30T00:28:21.540Z,20.00
2022-07-30T00:30:49.140Z,20.01
2022-07-30T00:33:23.302Z,19.97
2022-07-30T00:35:51.406Z,19.83
2022-07-30T00:38:19.503Z,19.50
2022-07-30T00:40:48.754Z,19.46
2022-07-30T00:43:17.623Z,19.38
2022-07-30T00:45:45.840Z,19.52
2022-07-30T00:48:16.107Z,19.58
2022-07-30T00:50:45.284Z,19.60
2022-07-30T00:53:16.495Z,19.59
2022-07-30T00:55:44.280Z,19.55
2022-07-30T00:58:14.580Z,19.53
2022-07-30T01:00:45.442Z,19.49
2022-07-30T01:03:15.939Z,19.43
2022-07-30T01:05:43.887Z,19.00
2022-07-30T01:08:14.668Z,18.81
2022-07-30T01:10:45.858Z,18.73
2022-07-30T01:13:17.558Z,18.54
2022-07-30T01:15:45.240Z,18.33
2022-07-30T01:18:16.114Z,18.28
2022-07-30T01:21:05.400Z,18.26
2022-07-30T01:23:43.837Z,18.36
2022-07-30T01:26:20.811Z,18.33
2022-07-30T01:28:59.011Z,18.57
2022-07-30T01:31:31.286Z,18.71
2022-07-30T01:34:04.731Z,18.75
2022-07-30T01:36:34.821Z,18.81
2022-07-30T01:39:03.674Z,18.78
2022-07-30T01:41:32.564Z,18.70
2022-07-30T01:44:02.674Z,18.73
2022-07-30T01:46:33.828Z,18.70
2022-07-30T01:49:03.861Z,18.71
2022-07-30T01:51:37.657Z,18.67
2022-07-30T01:54:12.069Z,18.33
2022-07-30T01:56:44.842Z,18.09
2022-07-30T01:59:22.981Z,18.21
2022-07-30T02:01:50.968Z,18.26
2022-07-30T02:04:18.867Z,18.39
2022-07-30T02:07:01.739Z,18.40
2022-07-30T02:09:37.915Z,18.15
2022-07-30T02:12:31.695Z,17.89
2022-07-30T02:15:19.338Z,17.79
2022-07-30T02:18:00.639Z,17.58
2022-07-30T02:20:31.833Z,17.61
2022-07-30T02:23:07.361Z,17.79
2022-07-30T02:25:42.346Z,17.75
2022-07-30T02:28:15.634Z,17.71
2022-07-30T02:30:59.286Z,17.70
2022-07-30T02:33:33.377Z,17.63
2022-07-30T02:36:11.229Z,17.60
2022-07-30T02:38:47.530Z,17.53
2022-07-30T02:41:17.119Z,17.48
2022-07-30T02:43:45.963Z,17.38
2022-07-30T02:46:18.567Z,17.46
2022-07-30T02:49:07.146Z,17.53
2022-07-30T02:51:38.242Z,17.50
2022-07-30T02:54:07.914Z,17.60
2022-07-30T02:56:39.526Z,17.61
2022-07-30T02:59:08.491Z,17.65
2022-07-30T03:01:38.824Z,17.64
2022-07-30T03:04:08.722Z,17.64
2022-07-30T03:06:37.837Z,17.60
2022-07-30T03:09:07.466Z,17.55
2022-07-30T03:11:37.490Z,17.38
2022-07-30T03:14:05.910Z,17.40
2022-07-30T03:16:38.868Z,17.37
2022-07-30T03:19:12.228Z,17.38
2022-07-30T03:21:43.369Z,17.20
2022-07-30T03:24:15.079Z,17.05
2022-07-30T03:26:46.272Z,16.92
2022-07-30T03:29:16.766Z,16.86
2022-07-30T03:31:50.936Z,16.88
2022-07-30T03:34:25.598Z,16.75
2022-07-30T03:36:56.259Z,16.69
2022-07-30T03:39:25.103Z,16.68
2022-07-30T03:41:54.955Z,16.51
2022-07-30T03:44:24.362Z,16.37
2022-07-30T03:46:55.549Z,16.47
2022-07-30T03:49:25.646Z,16.48
2022-07-30T03:51:55.135Z,16.37
2022-07-30T03:54:28.085Z,16.42
2022-07-30T03:57:20.410Z,16.50
2022-07-30T03:59:51.808Z,16.62
2022-07-30T04:02:21.802Z,16.58
2022-07-30T04:05:05.734Z,16.65
2022-07-30T04:07:34.096Z,16.69
2022-07-30T04:10:14.166Z,16.72
2022-07-30T04:13:05.406Z,16.90
2022-07-30T04:16:38.489Z,16.82
2022-07-30T04:18:56.363Z,16.92
2022-07-30T04:21:27.031Z,17.07
2022-07-30T04:24:02.990Z,17.15
2022-07-30T04:26:36.071Z,17.10
2022-07-30T04:29:07.755Z,16.86
2022-07-30T04:31:41.464Z,16.62
2022-07-30T04:34:36.692Z,16.52
2022-07-30T04:37:08.211Z,16.68
2022-07-30T04:39:36.001Z,16.68
2022-07-30T04:42:03.784Z,16.71
2022-07-30T04:44:37.595Z,16.68
2022-07-30T04:47:28.935Z,16.62
2022-07-30T04:50:27.866Z,16.62
2022-07-30T04:52:57.614Z,16.73
2022-07-30T04:55:34.473Z,16.76
2022-07-30T04:58:03.724Z,16.88
2022-07-30T05:00:41.170Z,17.00
2022-07-30T05:03:15.295Z,17.17
2022-07-30T05:05:52.046Z,17.13
2022-07-30T05:08:25.248Z,17.10
2022-07-30T05:10:53.365Z,17.23
2022-07-30T05:13:34.603Z,17.33
2022-07-30T05:16:10.427Z,17.43
2022-07-30T05:18:43.785Z,17.33
2022-07-30T05:21:16.109Z,17.33
2022-07-30T05:23:50.014Z,17.51
2022-07-30T05:26:28.119Z,17.61
2022-07-30T05:28:57.472Z,17.63
2022-07-30T05:31:54.411Z,17.54
2022-07-30T05:34:22.783Z,17.63
2022-07-30T05:36:51.074Z,17.65
2022-07-30T05:39:19.619Z,17.68
2022-07-30T05:41:53.930Z,17.54
2022-07-30T05:44:42.377Z,17.51
2022-07-30T05:47:10.009Z,17.61
2022-07-30T05:49:47.306Z,17.57
2022-07-30T05:52:15.751Z,17.68
2022-07-30T05:54:44.397Z,17.48
2022-07-30T05:57:38.749Z,17.55
2022-07-30T06:00:16.119Z,17.58
2022-07-30T06:02:53.052Z,17.40
2022-07-30T06:05:26.825Z,17.26
2022-07-30T06:07:56.918Z,17.34
2022-07-30T06:10:26.744Z,17.13
2022-07-30T06:12:54.577Z,17.06
2022-07-30T06:15:26.043Z,17.02
2022-07-30T06:18:01.346Z,17.09
2022-07-30T06:20:45.325Z,17.17
2022-07-30T06:23:18.749Z,17.07
2022-07-30T06:26:18.576Z,17.05
2022-07-30T06:28:46.464Z,17.10
2022-07-30T06:31:23.722Z,17.22
2022-07-30T06:33:51.539Z,17.22
2022-07-30T06:36:19.145Z,17.07
2022-07-30T06:38:58.309Z,16.93
2022-07-30T06:41:41.068Z,16.88
2022-07-30T06:44:15.688Z,16.83
2022-07-30T06:46:48.833Z,17.09
2022-07-30T06:49:18.907Z,17.29
2022-07-30T06:51:46.668Z,17.44
2022-07-30T06:54:15.096Z,17.64
2022-07-30T06:57:01.973Z,18.97
2022-07-30T06:59:30.506Z,19.29
2022-07-30T07:02:03.811Z,19.16
2022-07-30T07:04:35.952Z,19.39
2022-07-30T07:07:12.497Z,19.21
2022-07-30T07:09:44.727Z,19.28
2022-07-30T07:12:31.360Z,19.16
2022-07-30T07:15:00.124Z,18.88
2022-07-30T07:17:28.525Z,18.94
2022-07-30T07:20:06.010Z,19.01
2022-07-30T07:22:42.310Z,18.98
2022-07-30T07:25:11.757Z,19.16
2022-07-30T07:27:42.544Z,19.29
2022-07-30T07:30:14.361Z,19.28
2022-07-30T07:32:42.465Z,19.19
2022-07-30T07:35:14.109Z,19.33
2022-07-30T07:37:45.153Z,19.70
2022-07-30T07:40:23.340Z,20.41
2022-07-30T07:42:52.744Z,21.35
2022-07-30T07:45:20.580Z,22.12
2022-07-30T07:48:04.254Z,22.68
2022-07-30T07:50:59.929Z,24.25
2022-07-30T07:53:30.717Z,25.47
2022-07-30T07:55:59.757Z,25.02
2022-07-30T07:58:29.466Z,24.79
2022-07-30T08:01:00.854Z,24.86
2022-07-30T08:03:49.120Z,25.82
2022-07-30T08:06:39.513Z,27.36
2022-07-30T08:09:43.654Z,26.48
2022-07-30T08:12:21.320Z,25.69
2022-07-30T08:15:22.117Z,25.10
2022-07-30T08:18:19.345Z,24.52
2022-07-30T08:21:00.709Z,24.17
2022-07-30T08:23:32.556Z,24.84
2022-07-30T08:26:00.743Z,25.90
2022-07-30T08:28:36.543Z,27.77
2022-07-30T08:31:07.835Z,28.80
2022-07-30T08:33:35.737Z,27.86
2022-07-30T08:36:09.425Z,26.02
2022-07-30T08:38:43.282Z,25.04
2022-07-30T08:41:14.101Z,26.36
2022-07-30T08:43:43.347Z,26.68
2022-07-30T08:46:15.817Z,27.94
2022-07-30T08:48:52.102Z,28.31
2022-07-30T08:51:20.810Z,27.47
2022-07-30T08:54:07.421Z,26.65
2022-07-30T08:56:36.182Z,25.81
2022-07-30T08:59:04.593Z,25.28
2022-07-30T09:01:32.311Z,26.71
2022-07-30T09:04:00.437Z,27.79
2022-07-30T09:06:28.994Z,28.93
2022-07-30T09:08:57.232Z,28.84
2022-07-30T09:11:24.946Z,28.62
2022-07-30T09:13:52.812Z,28.25
2022-07-30T09:16:25.445Z,29.62
2022-07-30T09:18:55.714Z,30.61
2022-07-30T09:21:27.129Z,31.30
2022-07-30T09:24:17.972Z,31.90
2022-07-30T09:27:15.410Z,31.70
2022-07-30T09:30:01.527Z,30.34
2022-07-30T09:32:52.331Z,30.89
2022-07-30T09:35:39.315Z,30.57
2022-07-30T09:38:13.780Z,30.26
2022-07-30T09:40:53.196Z,30.95
2022-07-30T09:43:50.464Z,31.36
2022-07-30T09:46:48.007Z,31.25
2022-07-30T09:49:27.946Z,30.99
2022-07-30T09:51:57.678Z,31.22
2022-07-30T09:54:52.703Z,32.13
2022-07-30T10:00:23.737Z,32.39
2022-07-30T10:03:38.358Z,32.01
2022-07-30T10:06:37.872Z,32.10
2022-07-30T10:09:37.445Z,31.69
2022-07-30T10:12:18.646Z,31.59
2022-07-30T10:14:54.715Z,32.45
2022-07-30T10:17:23.719Z,32.49
2022-07-30T10:20:22.741Z,32.90
2022-07-30T10:23:32.725Z,32.78
2022-07-30T10:26:19.999Z,32.59
2022-07-30T10:29:06.781Z,33.37
2022-07-30T10:31:48.590Z,33.64
2022-07-30T10:34:23.813Z,32.93
2022-07-30T10:36:58.665Z,32.51
2022-07-30T10:39:34.529Z,32.87
2022-07-30T10:42:20.461Z,33.50
2022-07-30T10:45:00.850Z,33.07
2022-07-30T10:47:34.470Z,33.54
2022-07-30T10:50:22.199Z,32.66
2022-07-30T10:52:52.344Z,33.19
2022-07-30T10:55:42.474Z,33.11
2022-07-30T10:58:22.867Z,33.03
2022-07-30T11:00:53.867Z,33.21
2022-07-30T11:03:40.410Z,33.68
2022-07-30T11:06:29.918Z,32.84
2022-07-30T11:08:58.259Z,32.86
2022-07-30T11:12:01.920Z,32.72
2022-07-30T11:14:49.045Z,32.96
2022-07-30T11:17:19.237Z,33.38
2022-07-30T11:20:06.992Z,33.55
2022-07-30T11:22:44.946Z,33.34
2022-07-30T11:25:51.326Z,33.28
2022-07-30T11:28:44.992Z,31.51
2022-07-30T11:31:55.807Z,31.43
2022-07-30T11:34:26.139Z,31.67
2022-07-30T11:37:18.056Z,32.27
2022-07-30T11:39:56.050Z,31.72
2022-07-30T11:42:27.602Z,31.76
2022-07-30T11:45:18.684Z,30.57
2022-07-30T11:47:49.342Z,31.14
2022-07-30T11:50:29.998Z,32.01
2022-07-30T11:53:01.130Z,32.32
2022-07-30T11:55:36.845Z,31.94
2022-07-30T11:58:08.427Z,32.15
2022-07-30T12:00:38.421Z,32.38
2022-07-30T12:03:16.663Z,32.63
2022-07-30T12:05:45.307Z,32.56
2022-07-30T12:08:35.640Z,32.45
2022-07-30T12:11:04.754Z,32.45
2022-07-30T12:13:44.166Z,32.46
2022-07-30T12:16:18.266Z,31.84
2022-07-30T12:18:47.912Z,31.98
2022-07-30T12:21:16.509Z,31.60
2022-07-30T12:23:55.971Z,31.39
2022-07-30T12:26:29.642Z,30.63
2022-07-30T12:28:59.657Z,30.82
2022-07-30T12:31:28.831Z,30.61
2022-07-30T12:33:58.297Z,30.65
2022-07-30T12:36:29.700Z,30.91
2022-07-30T12:38:58.796Z,31.33
2022-07-30T12:41:48.331Z,31.63
2022-07-30T12:44:42.999Z,31.02
2022-07-30T12:47:20.982Z,31.12
2022-07-30T12:49:50.219Z,31.30
2022-07-30T12:52:31.072Z,31.23
2022-07-30T12:55:14.660Z,30.99
2022-07-30T12:57:57.875Z,30.77
2022-07-30T13:00:53.521Z,30.80
2022-07-30T13:03:29.578Z,30.82
2022-07-30T13:05:58.061Z,30.75
2022-07-30T13:08:50.481Z,30.68
2022-07-30T13:11:20.624Z,30.61
2022-07-30T13:13:49.486Z,30.64
2022-07-30T13:16:19.237Z,30.78
2022-07-30T13:18:47.581Z,30.84
2022-07-30T13:21:16.425Z,30.98
2022-07-30T13:23:44.611Z,31.09
2022-07-30T13:26:16.143Z,31.03
2022-07-30T13:28:44.207Z,31.00
2022-07-30T13:31:15.513Z,30.63
2022-07-30T13:33:43.431Z,30.17
2022-07-30T13:36:12.505Z,30.43
2022-07-30T13:38:43.394Z,30.37
2022-07-30T13:41:21.862Z,30.53
2022-07-30T13:43:50.411Z,30.54
2022-07-30T13:46:18.393Z,30.53
2022-07-30T13:49:01.203Z,30.61
2022-07-30T13:51:30.491Z,30.67
2022-07-30T13:53:58.650Z,30.54
2022-07-30T13:56:26.577Z,30.64
2022-07-30T13:58:54.782Z,30.75
2022-07-30T14:01:22.935Z,30.48
2022-07-30T14:03:51.184Z,30.44
2022-07-30T14:06:19.974Z,30.50
2022-07-30T14:08:48.173Z,30.58
2022-07-30T14:11:16.939Z,30.71
2022-07-30T14:13:45.829Z,30.60
2022-07-30T14:16:42.887Z,30.43
2022-07-30T14:19:05.429Z,30.23
2022-07-30T14:21:35.836Z,30.22
2022-07-30T14:24:05.156Z,29.78
2022-07-30T14:26:36.652Z,29.33
2022-07-30T14:29:05.656Z,28.68
2022-07-30T14:31:34.078Z,28.76
2022-07-30T14:34:02.343Z,29.13
2022-07-30T14:36:30.448Z,29.23
2022-07-30T14:38:58.670Z,29.47
2022-07-30T14:41:28.433Z,29.71
2022-07-30T14:43:56.348Z,29.81
2022-07-30T14:46:24.258Z,29.76
2022-07-30T14:48:51.953Z,29.48
2022-07-30T14:51:25.708Z,29.38
2022-07-30T14:53:54.089Z,29.38
2022-07-30T14:56:24.084Z,29.38
2022-07-30T14:58:53.172Z,29.61
2022-07-30T15:01:20.856Z,29.65
2022-07-30T15:03:48.694Z,29.69
2022-07-30T15:06:17.331Z,29.85
2022-07-30T15:08:47.694Z,29.79
2022-07-30T15:11:15.960Z,29.64
2022-07-30T15:13:50.599Z,29.48
2022-07-30T15:16:19.594Z,29.43
2022-07-30T15:18:47.267Z,28.93
2022-07-30T15:21:15.307Z,28.62
2022-07-30T15:23:43.352Z,28.79
2022-07-30T15:26:15.941Z,28.80
2022-07-30T15:28:44.033Z,28.60
2022-07-30T15:31:15.294Z,28.35
2022-07-30T15:33:44.909Z,28.29
2022-07-30T15:36:17.520Z,28.56
2022-07-30T15:38:45.174Z,28.56
2022-07-30T15:41:19.720Z,28.56
2022-07-30T15:43:48.003Z,28.83
2022-07-30T15:46:25.058Z,28.93
2022-07-30T15:48:52.825Z,28.92
2022-07-30T15:51:20.735Z,28.60
2022-07-30T15:53:48.965Z,28.48
2022-07-30T15:56:17.392Z,28.45
2022-07-30T15:58:45.491Z,28.66
2022-07-30T16:01:14.367Z,28.86
2022-07-30T16:03:45.214Z,28.93
2022-07-30T16:06:16.259Z,28.93
2022-07-30T16:08:44.128Z,28.96
2022-07-30T16:11:17.834Z,28.86
2022-07-30T16:13:46.378Z,28.80
2022-07-30T16:16:21.059Z,28.77
2022-07-30T16:18:48.988Z,28.68
2022-07-30T16:21:21.979Z,28.65
2022-07-30T16:23:52.401Z,28.19
2022-07-30T16:26:21.857Z,28.22
2022-07-30T16:28:50.459Z,28.32
2022-07-30T16:31:18.349Z,28.51
2022-07-30T16:33:47.683Z,28.41
2022-07-30T16:36:17.343Z,28.37
2022-07-30T16:38:45.312Z,28.51
2022-07-30T16:41:22.111Z,28.58
2022-07-30T16:43:50.248Z,28.55
2022-07-30T16:46:19.459Z,28.44
2022-07-30T16:48:47.358Z,28.48
2022-07-30T16:51:19.332Z,28.63
2022-07-30T16:53:48.856Z,28.51
2022-07-30T16:56:17.989Z,28.55
2022-07-30T16:58:46.338Z,28.63
2022-07-30T17:01:14.654Z,28.69
2022-07-30T17:03:43.171Z,28.75
2022-07-30T17:06:13.440Z,28.65
2022-07-30T17:08:41.589Z,28.24
2022-07-30T17:11:19.174Z,27.76
2022-07-30T17:14:03.417Z,27.49
2022-07-30T17:16:31.338Z,27.32
2022-07-30T17:19:01.428Z,27.42
2022-07-30T17:21:38.391Z,27.56
2022-07-30T17:24:13.130Z,27.57
2022-07-30T17:26:46.859Z,27.35
2022-07-30T17:29:16.690Z,27.32
2022-07-30T17:31:48.129Z,27.46
2022-07-30T17:34:20.483Z,27.60
2022-07-30T17:36:51.648Z,27.54
2022-07-30T17:40:19.080Z,27.47
2022-07-30T17:42:14.895Z,27.36
2022-07-30T17:44:44.950Z,27.36
2022-07-30T17:47:14.584Z,27.31
2022-07-30T17:49:46.108Z,27.21
2022-07-30T17:52:27.328Z,27.13
2022-07-30T17:54:55.396Z,26.64
2022-07-30T17:57:23.424Z,26.51
2022-07-30T17:59:51.191Z,26.78
2022-07-30T18:02:24.063Z,26.95
2022-07-30T18:04:56.925Z,27.06
2022-07-30T18:07:25.671Z,27.22
2022-07-30T18:09:53.529Z,27.28
2022-07-30T18:12:21.204Z,27.25
2022-07-30T18:14:52.159Z,27.22
2022-07-30T18:17:20.031Z,27.23
2022-07-30T18:19:47.706Z,27.25
2022-07-30T18:22:16.570Z,27.21
2022-07-30T18:24:57.375Z,27.28
2022-07-30T18:27:25.165Z,27.35
2022-07-30T18:29:52.768Z,27.29
2022-07-30T18:32:22.070Z,27.19
2022-07-30T18:34:50.660Z,27.09
2022-07-30T18:37:18.282Z,27.02
2022-07-30T18:39:46.038Z,26.95
2022-07-30T18:42:16.993Z,26.92
2022-07-30T18:44:45.082Z,26.88
2022-07-30T18:47:15.013Z,26.90
2022-07-30T18:49:43.596Z,26.95
2022-07-30T18:52:18.209Z,26.90
2022-07-30T18:54:51.886Z,26.84
2022-07-30T18:57:25.618Z,26.80
2022-07-30T18:59:57.896Z,26.75
2022-07-30T19:02:25.764Z,26.75
2022-07-30T19:04:56.642Z,26.70
2022-07-30T19:07:24.677Z,26.67
2022-07-30T19:09:55.466Z,26.68
2022-07-30T19:12:23.529Z,26.61
2022-07-30T19:15:00.940Z,26.50
2022-07-30T19:17:45.160Z,26.48
2022-07-30T19:20:16.073Z,26.46
2022-07-30T19:22:44.076Z,26.43
2022-07-30T19:25:14.613Z,26.44
2022-07-30T19:27:45.726Z,26.46
2022-07-30T19:30:18.885Z,26.30
2022-07-30T19:32:47.321Z,26.25
2022-07-30T19:35:19.899Z,26.23
2022-07-30T19:37:47.763Z,26.13
2022-07-30T19:40:15.683Z,26.05
2022-07-30T19:42:44.723Z,26.05
2022-07-30T19:45:18.977Z,25.99
2022-07-30T19:47:47.288Z,25.99
2022-07-30T19:50:15.585Z,25.92
2022-07-30T19:52:51.623Z,25.95
2022-07-30T19:55:34.931Z,25.90
2022-07-30T19:58:05.397Z,25.92
2022-07-30T20:00:52.781Z,25.98
2022-07-30T20:03:25.501Z,25.96
2022-07-30T20:05:59.528Z,25.99
2022-07-30T20:08:28.602Z,25.99
2022-07-30T20:10:57.780Z,26.02
2022-07-30T20:13:44.180Z,26.02
2022-07-30T20:16:21.201Z,26.02
2022-07-30T20:18:49.705Z,25.95
2022-07-30T20:21:19.343Z,25.93
2022-07-30T20:23:47.427Z,25.89
2022-07-30T20:26:20.816Z,25.84
2022-07-30T20:28:52.706Z,25.74
2022-07-30T20:31:21.406Z,25.65
2022-07-30T20:33:50.092Z,25.58
2022-07-30T20:36:18.910Z,25.55
2022-07-30T20:38:47.389Z,25.57
2022-07-30T20:41:15.938Z,25.55
2022-07-30T20:43:46.144Z,25.48
2022-07-30T20:46:23.345Z,25.41
2022-07-30T20:48:52.946Z,25.34
2022-07-30T20:51:20.778Z,25.33
2022-07-30T20:53:49.378Z,25.28
2022-07-30T20:56:20.030Z,25.27
2022-07-30T20:58:48.548Z,25.20
2022-07-30T21:01:18.216Z,25.20
2022-07-30T21:03:47.587Z,25.21
2022-07-30T21:06:16.453Z,25.14
2022-07-30T21:08:47.227Z,25.04
2022-07-30T21:11:15.558Z,24.99
2022-07-30T21:13:45.819Z,24.97
2022-07-30T21:16:15.791Z,25.00
2022-07-30T21:18:49.691Z,24.90
2022-07-30T21:21:28.608Z,24.97
2022-07-30T21:24:00.890Z,25.06
2022-07-30T21:26:29.746Z,25.09
2022-07-30T21:28:57.831Z,25.06
2022-07-30T21:31:58.035Z,25.06
2022-07-30T21:34:15.602Z,25.03
2022-07-30T21:36:43.955Z,24.94
2022-07-30T21:39:15.147Z,24.99
2022-07-30T21:41:43.642Z,24.99
2022-07-30T21:44:16.211Z,24.97
2022-07-30T21:46:48.734Z,24.93
2022-07-30T21:49:24.067Z,24.90
2022-07-30T21:51:52.722Z,24.83
2022-07-30T21:54:28.635Z,24.72
2022-07-30T21:57:02.241Z,24.62
2022-07-30T21:59:33.465Z,24.45
2022-07-30T22:02:03.971Z,24.32
2022-07-30T22:04:50.486Z,24.24
2022-07-30T22:10:01.750Z,24.05
2022-07-30T22:12:31.243Z,24.11
2022-07-30T22:14:59.269Z,24.03
2022-07-30T22:17:37.458Z,23.98
2022-07-30T22:20:17.832Z,23.92
2022-07-30T22:22:49.753Z,23.90
2022-07-30T22:25:18.928Z,23.81
2022-07-30T22:27:56.830Z,23.80
2022-07-30T22:30:30.902Z,23.73
2022-07-30T22:33:20.848Z,23.78
2022-07-30T22:35:52.840Z,23.80
2022-07-30T22:38:21.131Z,23.81
2022-07-30T22:40:49.849Z,23.77
2022-07-30T22:43:20.351Z,23.71
2022-07-30T22:45:50.069Z,23.69
2022-07-30T22:48:26.733Z,23.70
2022-07-30T22:50:55.464Z,23.70
2022-07-30T22:54:03.374Z,23.71
2022-07-30T22:56:15.662Z,23.59
2022-07-30T22:58:44.357Z,23.55
2022-07-30T23:01:14.762Z,23.52
2022-07-30T23:03:43.335Z,23.47
2022-07-30T23:09:03.050Z,23.43
2022-07-30T23:11:37.258Z,23.43
2022-07-30T23:12:30.937Z,23.42
2022-07-30T23:14:19.016Z,23.49
2022-07-30T23:16:50.284Z,23.52
2022-07-30T23:19:21.989Z,23.47
2022-07-30T23:21:50.396Z,23.53
2022-07-30T23:24:18.346Z,23.49
2022-07-30T23:26:48.332Z,23.50
2022-07-30T23:29:18.251Z,23.46
2022-07-30T23:31:45.866Z,23.43
2022-07-30T23:34:16.487Z,23.49
2022-07-30T23:36:44.040Z,23.52
2022-07-30T23:39:14.707Z,23.50
2022-07-30T23:41:45.509Z,23.45
2022-07-30T23:44:14.362Z,23.43
2022-07-30T23:46:42.227Z,23.47
2022-07-30T23:49:09.929Z,23.47
2022-07-30T23:51:42.668Z,23.43
2022-07-30T23:54:13.190Z,23.35
2022-07-30T23:56:41.303Z,23.26
2022-07-30T23:59:15.425Z,23.28
